createdAt,value
2018-04-06T00:00:08.285Z,3.67
2018-04-06T00:02:36.083Z,3.43
2018-04-06T00:05:03.810Z,3.80
2018-04-06T00:07:31.570Z,3.90
2018-04-06T00:09:59.301Z,4.63
2018-04-06T00:12:27.035Z,4.60
2018-04-06T00:14:55.173Z,3.80
2018-04-06T00:17:22.920Z,3.10
2018-04-06T00:19:50.642Z,4.47
2018-04-06T00:22:18.429Z,3.30
2018-04-06T00:24:46.178Z,5.20
2018-04-06T00:27:13.900Z,3.53
2018-04-06T00:29:41.636Z,4.17
2018-04-06T00:32:09.360Z,3.40
2018-04-06T00:34:37.220Z,4.43
2018-04-06T00:37:05.367Z,3.63
2018-04-06T00:39:33.084Z,3.40
2018-04-06T00:42:00.831Z,3.87
2018-04-06T00:44:28.566Z,4.00
2018-04-06T00:46:56.686Z,3.57
2018-04-06T00:49:24.460Z,3.60
2018-04-06T00:51:52.251Z,2.90
2018-04-06T00:54:19.971Z,4.07
2018-04-06T00:56:47.750Z,4.83
2018-04-06T00:59:15.483Z,4.60
2018-04-06T01:01:43.250Z,3.50
2018-04-06T01:04:10.969Z,4.00
2018-04-06T01:06:38.702Z,3.13
2018-04-06T01:09:06.437Z,3.80
2018-04-06T01:11:34.569Z,3.13
2018-04-06T01:14:02.326Z,4.07
2018-04-06T01:16:30.057Z,3.40
2018-04-06T01:18:57.806Z,2.87
2018-04-06T01:21:25.647Z,3.70
2018-04-06T01:23:53.371Z,4.70
2018-04-06T01:26:21.120Z,3.63
2018-04-06T01:28:48.875Z,3.90
2018-04-06T01:31:16.720Z,4.40
2018-04-06T01:33:44.853Z,4.43
2018-04-06T01:36:12.584Z,2.97
2018-04-06T01:38:40.336Z,4.07
2018-04-06T01:41:08.076Z,5.70
2018-04-06T01:43:36.227Z,3.47
2018-04-06T01:46:03.999Z,4.30
2018-04-06T01:48:31.732Z,4.10
2018-04-06T01:51:00.376Z,3.67
2018-04-06T01:53:28.263Z,4.30
2018-04-06T01:55:56.122Z,3.87
2018-04-06T01:58:23.989Z,4.33
2018-04-06T02:00:51.732Z,5.03
2018-04-06T02:03:19.486Z,3.87
2018-04-06T02:05:47.618Z,4.27
2018-04-06T02:08:15.338Z,4.10
2018-04-06T02:10:43.095Z,3.97
2018-04-06T02:13:11.215Z,3.27
2018-04-06T02:15:39.405Z,4.93
2018-04-06T02:18:07.136Z,3.00
2018-04-06T02:20:34.869Z,4.50
2018-04-06T02:23:02.992Z,4.40
2018-04-06T02:25:30.741Z,3.07
2018-04-06T02:27:58.474Z,3.90
2018-04-06T02:30:26.626Z,5.60
2018-04-06T02:32:54.358Z,4.50
2018-04-06T02:35:22.118Z,4.40
2018-04-06T02:37:49.855Z,4.83
2018-04-06T02:40:17.584Z,4.10
2018-04-06T02:42:45.356Z,4.03
2018-04-06T02:45:13.659Z,5.00
2018-04-06T02:47:41.500Z,6.40
2018-04-06T02:50:09.267Z,4.37
2018-04-06T02:52:37.391Z,4.17
2018-04-06T02:55:05.231Z,3.27
2018-04-06T02:57:32.998Z,3.20
2018-04-06T03:00:00.738Z,3.70
2018-04-06T03:02:28.468Z,4.20
2018-04-06T03:04:56.355Z,3.97
2018-04-06T03:07:24.091Z,4.03
2018-04-06T03:09:51.892Z,4.30
2018-04-06T03:12:20.077Z,3.67
2018-04-06T03:14:48.347Z,4.40
2018-04-06T03:17:16.479Z,5.27
2018-04-06T03:19:44.205Z,5.00
2018-04-06T03:22:11.952Z,3.53
2018-04-06T03:24:40.077Z,4.07
2018-04-06T03:27:07.828Z,3.77
2018-04-06T03:29:35.585Z,4.90
2018-04-06T03:32:03.343Z,3.93
2018-04-06T03:34:31.076Z,3.60
2018-04-06T03:36:59.212Z,4.47
2018-04-06T03:39:27.035Z,4.30
2018-04-06T03:41:54.870Z,4.73
2018-04-06T03:44:22.605Z,4.00
2018-04-06T03:46:50.361Z,4.47
2018-04-06T03:49:18.096Z,4.83
2018-04-06T03:51:45.839Z,5.07
2018-04-06T03:54:13.963Z,5.50
2018-04-06T03:56:41.696Z,4.00
2018-04-06T03:59:09.432Z,5.00
2018-04-06T04:01:37.159Z,6.53
2018-04-06T04:04:04.887Z,4.50
2018-04-06T04:06:32.630Z,4.73
2018-04-06T04:09:00.797Z,4.10
2018-04-06T04:11:28.665Z,4.30
2018-04-06T04:13:56.423Z,4.30
2018-04-06T04:16:24.162Z,4.50
2018-04-06T04:18:52.061Z,5.63
2018-04-06T04:21:19.804Z,3.97
2018-04-06T04:23:47.547Z,5.67
2018-04-06T04:26:15.301Z,5.83
2018-04-06T04:28:43.081Z,3.80
2018-04-06T04:31:10.807Z,4.03
2018-04-06T04:33:38.526Z,4.67
2018-04-06T04:36:06.257Z,5.60
2018-04-06T04:38:34.055Z,20.90
2018-04-06T04:41:02.223Z,5.30
2018-04-06T04:43:29.995Z,4.10
2018-04-06T04:45:57.722Z,4.10
2018-04-06T04:48:25.463Z,4.87
2018-04-06T04:50:53.223Z,6.70
2018-04-06T04:53:21.373Z,4.17
2018-04-06T04:55:49.105Z,4.60
2018-04-06T04:58:16.827Z,4.40
2018-04-06T05:00:44.957Z,4.20
2018-04-06T05:03:12.690Z,3.53
2018-04-06T05:05:40.433Z,4.63
2018-04-06T05:08:08.180Z,4.00
2018-04-06T05:10:36.318Z,3.63
2018-04-06T05:13:04.087Z,3.37
2018-04-06T05:15:31.877Z,4.43
2018-04-06T05:18:00.025Z,3.50
2018-04-06T05:20:28.568Z,3.63
2018-04-06T05:22:56.383Z,3.60
2018-04-06T05:25:24.524Z,3.47
2018-04-06T05:27:52.344Z,4.20
2018-04-06T05:30:20.502Z,3.40
2018-04-06T05:32:48.262Z,3.30
2018-04-06T05:35:16.019Z,4.03
2018-04-06T05:37:44.078Z,4.03
2018-04-06T05:40:11.816Z,4.13
2018-04-06T05:42:39.639Z,3.97
2018-04-06T05:45:07.391Z,4.47
2018-04-06T05:47:35.167Z,5.03
2018-04-06T05:50:03.599Z,4.80
2018-04-06T05:52:31.358Z,6.03
2018-04-06T05:54:59.111Z,4.60
2018-04-06T05:57:27.729Z,4.40
2018-04-06T05:59:55.470Z,5.00
2018-04-06T06:02:23.276Z,5.03
2018-04-06T06:04:51.017Z,4.60
2018-04-06T06:07:18.775Z,4.20
2018-04-06T06:09:46.504Z,4.00
2018-04-06T06:12:14.259Z,5.10
2018-04-06T06:14:42.377Z,4.40
2018-04-06T06:17:10.125Z,5.20
2018-04-06T06:19:37.940Z,4.33
2018-04-06T06:22:05.674Z,4.40
2018-04-06T06:24:33.419Z,4.37
2018-04-06T06:27:01.165Z,4.63
2018-04-06T06:29:29.013Z,5.20
2018-04-06T06:31:57.163Z,4.47
2018-04-06T06:34:24.899Z,5.40
2018-04-06T06:36:52.662Z,4.90
2018-04-06T06:39:20.400Z,4.47
2018-04-06T06:41:48.955Z,5.00
2018-04-06T06:44:17.071Z,5.00
2018-04-06T06:46:44.801Z,4.53
2018-04-06T06:49:12.925Z,4.40
2018-04-06T06:51:40.684Z,5.60
2018-04-06T06:54:08.433Z,4.70
2018-04-06T06:56:36.285Z,5.00
2018-04-06T06:59:04.037Z,4.67
2018-04-06T07:01:32.163Z,4.37
2018-04-06T07:03:59.910Z,5.50
2018-04-06T07:06:27.722Z,5.40
2018-04-06T07:08:55.497Z,3.97
2018-04-06T07:11:23.668Z,4.70
2018-04-06T07:13:51.416Z,4.60
2018-04-06T07:16:19.186Z,5.00
2018-04-06T07:18:46.925Z,4.60
2018-04-06T07:21:14.665Z,4.90
2018-04-06T07:23:42.478Z,5.00
2018-04-06T07:26:10.291Z,4.00
2018-04-06T07:28:38.017Z,4.93
2018-04-06T07:31:06.151Z,4.50
2018-04-06T07:33:33.906Z,3.93
2018-04-06T07:36:01.675Z,5.10
2018-04-06T07:38:29.399Z,3.77
2018-04-06T07:40:57.136Z,3.70
2018-04-06T07:43:24.910Z,4.13
2018-04-06T07:45:53.044Z,4.03
2018-04-06T07:48:20.703Z,4.97
2018-04-06T07:50:48.479Z,3.83
2018-04-06T07:53:16.211Z,4.40
2018-04-06T07:55:43.865Z,4.07
2018-04-06T07:58:11.898Z,4.17
2018-04-06T08:00:39.599Z,4.90
2018-04-06T08:03:07.255Z,3.20
2018-04-06T08:05:35.306Z,4.40
2018-04-06T08:08:02.944Z,3.63
2018-04-06T08:10:30.595Z,3.20
2018-04-06T08:12:58.231Z,3.00
2018-04-06T08:15:25.902Z,3.80
2018-04-06T08:17:53.541Z,3.00
2018-04-06T08:20:21.292Z,2.87
2018-04-06T08:22:49.329Z,3.17
2018-04-06T08:25:16.992Z,2.80
2018-04-06T08:27:44.654Z,2.63
2018-04-06T08:30:12.350Z,2.70
2018-04-06T08:32:40.395Z,2.87
2018-04-06T08:35:08.103Z,2.57
2018-04-06T08:37:35.851Z,2.20
2018-04-06T08:40:03.957Z,3.30
2018-04-06T08:42:31.696Z,1.90
2018-04-06T08:44:59.370Z,2.47
2018-04-06T08:47:27.125Z,2.50
2018-04-06T08:49:54.891Z,1.57
2018-04-06T08:52:22.536Z,2.03
2018-04-06T08:54:50.615Z,2.00
2018-04-06T08:57:18.369Z,1.57
2018-04-06T08:59:46.408Z,1.33
2018-04-06T09:02:14.063Z,1.50
2018-04-06T09:04:42.355Z,1.93
2018-04-06T09:07:10.015Z,1.93
2018-04-06T09:09:37.708Z,1.57
2018-04-06T09:12:05.762Z,2.03
2018-04-06T09:14:33.416Z,1.80
2018-04-06T09:17:01.079Z,1.43
2018-04-06T09:19:29.142Z,1.83
2018-04-06T09:21:56.777Z,1.70
2018-04-06T09:24:24.510Z,1.43
2018-04-06T09:26:52.678Z,1.40
2018-04-06T09:29:20.723Z,1.67
2018-04-06T09:31:48.390Z,1.70
2018-04-06T09:34:16.647Z,1.80
2018-04-06T09:36:44.344Z,1.07
2018-04-06T09:39:12.396Z,1.87
2018-04-06T09:41:40.807Z,1.30
2018-04-06T09:44:08.495Z,1.23
2018-04-06T09:46:36.130Z,1.57
2018-04-06T09:49:04.172Z,1.43
2018-04-06T09:51:31.892Z,1.37
2018-04-06T09:53:59.538Z,1.83
2018-04-06T09:56:27.296Z,1.17
2018-04-06T09:58:54.951Z,1.33
2018-04-06T10:01:22.992Z,1.60
2018-04-06T10:03:50.666Z,1.07
2018-04-06T10:06:18.338Z,1.13
2018-04-06T10:08:46.390Z,1.30
2018-04-06T10:11:14.036Z,1.87
2018-04-06T10:13:41.733Z,1.27
2018-04-06T10:16:09.797Z,1.90
2018-04-06T10:18:37.865Z,0.90
2018-04-06T10:21:05.542Z,2.07
2018-04-06T10:23:33.605Z,1.40
2018-04-06T10:26:01.676Z,1.37
2018-04-06T10:28:29.343Z,1.33
2018-04-06T10:30:57.392Z,2.10
2018-04-06T10:33:25.114Z,1.90
2018-04-06T10:35:52.847Z,1.20
2018-04-06T10:38:20.906Z,1.93
2018-04-06T10:40:48.550Z,2.20
2018-04-06T10:43:16.249Z,1.80
2018-04-06T10:45:43.909Z,1.57
2018-04-06T10:48:11.963Z,1.77
2018-04-06T10:50:39.631Z,2.20
2018-04-06T10:53:07.696Z,1.83
2018-04-06T10:55:36.548Z,2.00
2018-04-06T10:58:04.210Z,1.50
2018-04-06T11:00:31.967Z,2.13
2018-04-06T11:02:59.686Z,2.40
2018-04-06T11:05:27.752Z,2.50
2018-04-06T11:07:55.792Z,1.90
2018-04-06T11:10:23.501Z,1.73
2018-04-06T11:12:51.576Z,1.60
2018-04-06T11:15:19.239Z,2.30
2018-04-06T11:17:46.879Z,1.40
2018-04-06T11:20:14.555Z,2.10
2018-04-06T11:22:42.611Z,2.10
2018-04-06T11:25:10.299Z,1.50
2018-04-06T11:27:37.968Z,2.30
2018-04-06T11:30:05.676Z,1.73
2018-04-06T11:32:33.320Z,2.77
2018-04-06T11:35:01.027Z,2.17
2018-04-06T11:37:29.084Z,1.97
2018-04-06T11:39:56.729Z,1.80
2018-04-06T11:42:24.392Z,1.70
2018-04-06T11:44:52.039Z,1.47
2018-04-06T11:47:19.758Z,2.10
2018-04-06T11:49:47.808Z,1.70
2018-04-06T11:52:15.514Z,2.30
2018-04-06T11:54:43.171Z,2.53
2018-04-06T11:57:10.832Z,1.93
2018-04-06T11:59:38.478Z,2.27
2018-04-06T12:02:06.530Z,2.17
2018-04-06T12:04:34.232Z,1.53
2018-04-06T12:07:01.891Z,2.43
2018-04-06T12:09:29.539Z,1.93
2018-04-06T12:11:57.584Z,1.67
2018-04-06T12:14:25.214Z,2.20
2018-04-06T12:16:52.859Z,2.10
2018-04-06T12:19:20.513Z,2.00
2018-04-06T12:21:48.161Z,2.07
2018-04-06T12:24:16.246Z,2.10
2018-04-06T12:26:43.997Z,2.20
2018-04-06T12:29:12.071Z,2.00
2018-04-06T12:31:39.711Z,2.10
2018-04-06T12:34:07.374Z,1.90
2018-04-06T12:36:35.433Z,1.93
2018-04-06T12:39:03.078Z,2.07
2018-04-06T12:41:30.722Z,2.10
2018-04-06T12:43:58.376Z,2.10
2018-04-06T12:46:26.111Z,1.50
2018-04-06T12:48:54.209Z,3.60
2018-04-06T12:51:21.860Z,2.17
2018-04-06T12:53:49.610Z,1.80
2018-04-06T12:56:17.650Z,2.17
2018-04-06T12:58:45.342Z,1.70
2018-04-06T13:01:13.488Z,1.60
2018-04-06T13:03:41.133Z,3.23
2018-04-06T13:06:08.802Z,2.40
2018-04-06T13:08:36.528Z,1.60
2018-04-06T13:11:04.196Z,4.83
2018-04-06T13:13:31.838Z,1.83
2018-04-06T13:15:59.472Z,2.03
2018-04-06T13:18:27.567Z,2.60
2018-04-06T13:20:55.215Z,1.90
2018-04-06T13:23:23.289Z,2.37
2018-04-06T13:25:51.324Z,2.17
2018-04-06T13:28:18.987Z,2.07
2018-04-06T13:30:46.752Z,4.50
2018-04-06T13:33:14.418Z,1.83
2018-04-06T13:35:42.118Z,3.93
2018-04-06T13:38:10.154Z,2.37
2018-04-06T13:40:37.817Z,2.20
2018-04-06T13:43:05.478Z,2.00
2018-04-06T13:45:33.167Z,2.07
2018-04-06T13:48:01.206Z,1.50
2018-04-06T13:50:28.876Z,1.90
2018-04-06T13:52:56.560Z,1.33
2018-04-06T13:55:24.635Z,2.40
2018-04-06T13:57:52.676Z,1.93
2018-04-06T14:00:20.371Z,3.10
2018-04-06T14:02:48.411Z,1.53
2018-04-06T14:05:16.110Z,2.33
2018-04-06T14:07:44.182Z,1.60
2018-04-06T14:10:11.935Z,2.00
2018-04-06T14:12:39.983Z,2.13
2018-04-06T14:15:07.651Z,2.07
2018-04-06T14:17:35.715Z,2.17
2018-04-06T14:20:03.350Z,1.93
2018-04-06T14:22:31.032Z,2.70
2018-04-06T14:24:58.659Z,3.83
2018-04-06T14:27:26.378Z,2.10
2018-04-06T14:29:54.054Z,2.10
2018-04-06T14:32:22.103Z,1.83
2018-04-06T14:34:50.631Z,1.70
2018-04-06T14:37:18.293Z,1.70
2018-04-06T14:39:46.039Z,2.07
2018-04-06T14:42:14.081Z,1.90
2018-04-06T14:44:41.778Z,1.90
2018-04-06T14:47:09.520Z,2.10
2018-04-06T14:49:37.788Z,1.60
2018-04-06T14:52:05.488Z,2.77
2018-04-06T14:54:33.129Z,2.67
2018-04-06T14:57:01.182Z,2.20
2018-04-06T14:59:28.882Z,1.60
2018-04-06T15:01:56.650Z,1.53
2018-04-06T15:04:24.399Z,1.93
2018-04-06T15:06:52.464Z,1.70
2018-04-06T15:09:20.543Z,2.67
2018-04-06T15:11:48.612Z,1.80
2018-04-06T15:14:16.674Z,1.67
2018-04-06T15:16:44.736Z,1.97
2018-04-06T15:19:12.812Z,1.70
2018-04-06T15:21:42.118Z,1.90
2018-04-06T15:24:10.224Z,2.20
2018-04-06T15:26:37.897Z,2.17
2018-04-06T15:29:05.567Z,2.43
2018-04-06T15:31:33.246Z,1.57
2018-04-06T15:34:00.976Z,2.40
2018-04-06T15:36:28.740Z,1.40
2018-04-06T15:38:56.466Z,1.47
2018-04-06T15:41:24.541Z,1.53
2018-04-06T15:43:52.630Z,1.70
2018-04-06T15:46:20.349Z,1.73
2018-04-06T15:48:48.030Z,1.60
2018-04-06T15:51:16.114Z,1.80
2018-04-06T15:53:44.178Z,2.20
2018-04-06T15:56:12.264Z,2.23
2018-04-06T15:58:40.320Z,1.60
2018-04-06T16:01:07.986Z,1.50
2018-04-06T16:03:36.071Z,1.40
2018-04-06T16:06:04.186Z,2.03
2018-04-06T16:08:31.933Z,1.87
2018-04-06T16:10:59.578Z,1.80
2018-04-06T16:13:27.258Z,1.53
2018-04-06T16:15:54.929Z,1.50
2018-04-06T16:18:22.595Z,1.23
2018-04-06T16:20:50.255Z,2.30
2018-04-06T16:23:17.918Z,1.40
2018-04-06T16:25:45.680Z,1.73
2018-04-06T16:28:13.326Z,1.30
2018-04-06T16:30:41.022Z,1.30
2018-04-06T16:33:08.679Z,1.80
2018-04-06T16:35:36.339Z,1.50
2018-04-06T16:38:04.002Z,1.47
2018-04-06T16:40:31.721Z,1.80
2018-04-06T16:42:59.821Z,1.50
2018-04-06T16:45:27.479Z,2.10
2018-04-06T16:47:55.229Z,1.50
2018-04-06T16:50:22.907Z,1.20
2018-04-06T16:52:50.555Z,1.20
2018-04-06T16:55:18.211Z,2.13
2018-04-06T16:57:45.872Z,1.37
2018-04-06T17:00:13.941Z,1.17
2018-04-06T17:02:41.984Z,1.73
2018-04-06T17:05:09.671Z,3.43
2018-04-06T17:07:37.699Z,3.07
2018-04-06T17:10:05.372Z,2.23
2018-04-06T17:12:33.021Z,2.00
2018-04-06T17:15:00.680Z,2.80
2018-04-06T17:17:28.372Z,1.80
2018-04-06T17:19:56.009Z,2.00
2018-04-06T17:22:23.674Z,2.50
2018-04-06T17:24:51.345Z,2.10
2018-04-06T17:27:18.991Z,2.10
2018-04-06T17:29:46.645Z,2.30
2018-04-06T17:32:14.331Z,2.50
2018-04-06T17:34:41.977Z,2.33
2018-04-06T17:37:09.636Z,2.87
2018-04-06T17:39:37.363Z,1.97
2018-04-06T17:42:05.124Z,3.00
2018-04-06T17:44:32.877Z,1.70
2018-04-06T17:47:00.922Z,2.63
2018-04-06T17:49:28.621Z,2.33
2018-04-06T17:51:56.327Z,2.63
2018-04-06T17:54:23.974Z,2.23
2018-04-06T17:56:51.691Z,2.30
2018-04-06T17:59:19.736Z,2.77
2018-04-06T18:01:47.413Z,2.47
2018-04-06T18:04:15.502Z,2.40
2018-04-06T18:06:43.901Z,3.53
2018-04-06T18:09:11.575Z,3.30
2018-04-06T18:11:39.722Z,2.30
2018-04-06T18:14:07.795Z,2.73
2018-04-06T18:16:35.907Z,3.20
2018-04-06T18:19:03.624Z,3.57
2018-04-06T18:21:31.332Z,3.20
2018-04-06T18:23:58.971Z,3.07
2018-04-06T18:26:26.731Z,3.37
2018-04-06T18:28:54.398Z,3.10
2018-04-06T18:31:22.040Z,3.47
2018-04-06T18:33:49.753Z,3.23
2018-04-06T18:36:17.494Z,3.90
2018-04-06T18:38:45.150Z,3.60
2018-04-06T18:41:12.807Z,4.30
2018-04-06T18:43:40.466Z,3.07
2018-04-06T18:46:08.164Z,3.30
2018-04-06T18:48:35.812Z,4.10
2018-04-06T18:51:03.555Z,4.13
2018-04-06T18:53:31.785Z,3.60
2018-04-06T18:55:59.646Z,3.83
2018-04-06T18:58:27.365Z,3.47
2018-04-06T19:00:55.104Z,3.30
2018-04-06T19:03:23.260Z,3.00
2018-04-06T19:05:50.917Z,3.03
2018-04-06T19:08:18.559Z,3.10
2018-04-06T19:10:46.215Z,3.53
2018-04-06T19:13:13.851Z,3.10
2018-04-06T19:15:41.606Z,2.93
2018-04-06T19:18:09.373Z,3.57
2018-04-06T19:20:37.119Z,3.97
2018-04-06T19:23:05.159Z,3.23
2018-04-06T19:25:32.821Z,4.70
2018-04-06T19:28:00.487Z,4.13
2018-04-06T19:30:28.143Z,4.60
2018-04-06T19:32:55.858Z,5.90
2018-04-06T19:35:23.536Z,6.43
2018-04-06T19:37:51.269Z,6.70
2018-04-06T19:40:19.317Z,6.63
2018-04-06T19:42:46.968Z,7.53
2018-04-06T19:45:14.631Z,8.10
2018-04-06T19:47:42.278Z,9.70
2018-04-06T19:50:09.951Z,8.50
2018-04-06T19:52:37.651Z,7.60
2018-04-06T19:55:05.299Z,6.73
2018-04-06T19:57:33.347Z,6.93
2018-04-06T20:00:01.034Z,7.40
2018-04-06T20:02:29.120Z,7.13
2018-04-06T20:04:56.783Z,6.80
2018-04-06T20:07:24.824Z,6.70
2018-04-06T20:09:52.538Z,6.00
2018-04-06T20:12:20.575Z,5.23
2018-04-06T20:14:48.220Z,5.90
2018-04-06T20:17:15.868Z,5.60
2018-04-06T20:19:43.531Z,5.67
2018-04-06T20:22:11.194Z,5.90
2018-04-06T20:24:38.878Z,6.60
2018-04-06T20:27:06.514Z,5.70
2018-04-06T20:29:34.180Z,6.10
2018-04-06T20:32:01.849Z,6.17
2018-04-06T20:34:29.550Z,5.33
2018-04-06T20:36:57.246Z,5.57
2018-04-06T20:39:24.883Z,5.07
2018-04-06T20:41:52.548Z,5.73
2018-04-06T20:44:20.219Z,5.23
2018-04-06T20:46:47.961Z,5.30
2018-04-06T20:49:16.043Z,7.10
2018-04-06T20:51:43.702Z,5.87
2018-04-06T20:54:11.345Z,5.53
2018-04-06T20:56:39.450Z,6.03
2018-04-06T20:59:07.094Z,6.43
2018-04-06T21:01:35.133Z,5.40
2018-04-06T21:04:02.782Z,7.20
2018-04-06T21:06:30.455Z,6.63
2018-04-06T21:08:58.138Z,6.30
2018-04-06T21:11:26.192Z,9.27
2018-04-06T21:13:53.836Z,8.63
2018-04-06T21:16:21.643Z,6.50
2018-04-06T21:18:49.682Z,16.70
2018-04-06T21:21:17.343Z,19.53
2018-04-06T21:23:45.033Z,7.63
2018-04-06T21:26:13.075Z,6.27
2018-04-06T21:28:40.733Z,6.80
2018-04-06T21:31:08.390Z,6.67
2018-04-06T21:33:36.027Z,6.20
2018-04-06T21:36:03.693Z,5.93
2018-04-06T21:38:35.212Z,6.50
2018-04-06T21:41:03.032Z,6.10
2018-04-06T21:43:30.670Z,6.00
2018-04-06T21:45:59.151Z,6.63
2018-04-06T21:48:26.805Z,6.20
2018-04-06T21:50:54.462Z,6.60
2018-04-06T21:53:22.124Z,6.50
2018-04-06T21:55:49.802Z,6.87
2018-04-06T21:58:17.448Z,5.63
2018-04-06T22:00:45.141Z,5.90
2018-04-06T22:03:12.802Z,6.00
2018-04-06T22:05:40.480Z,6.20
2018-04-06T22:08:08.116Z,5.97
2018-04-06T22:10:35.772Z,6.40
2018-04-06T22:13:03.480Z,7.10
2018-04-06T22:15:31.147Z,6.57
2018-04-06T22:17:58.796Z,5.93
2018-04-06T22:20:26.537Z,6.43
2018-04-06T22:22:54.182Z,5.90
2018-04-06T22:25:21.839Z,6.10
2018-04-06T22:27:49.463Z,5.93
2018-04-06T22:30:17.506Z,6.30
2018-04-06T22:32:45.139Z,6.57
2018-04-06T22:35:12.792Z,4.87
2018-04-06T22:37:40.558Z,6.20
2018-04-06T22:40:08.240Z,5.70
2018-04-06T22:42:35.876Z,6.37
2018-04-06T22:45:03.543Z,6.50
2018-04-06T22:47:31.250Z,5.73
2018-04-06T22:49:58.919Z,6.00
2018-04-06T22:52:26.574Z,5.27
2018-04-06T22:54:54.216Z,5.47
2018-04-06T22:57:21.870Z,6.70
2018-04-06T22:59:49.515Z,6.63
2018-04-06T23:02:17.256Z,5.43
2018-04-06T23:04:45.293Z,7.30
2018-04-06T23:07:12.953Z,5.80
2018-04-06T23:09:40.597Z,6.17
2018-04-06T23:12:08.247Z,5.57
2018-04-06T23:14:35.881Z,6.50
2018-04-06T23:17:03.533Z,6.00
2018-04-06T23:19:31.573Z,6.90
2018-04-06T23:21:59.214Z,6.80
2018-04-06T23:24:26.864Z,7.80
2018-04-06T23:26:54.589Z,7.07
2018-04-06T23:29:22.633Z,9.40
2018-04-06T23:31:50.282Z,8.63
2018-04-06T23:34:17.943Z,8.30
2018-04-06T23:36:45.756Z,8.23
2018-04-06T23:39:13.792Z,8.67
2018-04-06T23:41:41.453Z,8.10
2018-04-06T23:44:09.180Z,7.67
2018-04-06T23:46:36.828Z,8.80
2018-04-06T23:49:04.466Z,7.80
2018-04-06T23:51:32.541Z,7.70
2018-04-06T23:54:00.199Z,8.30
2018-04-06T23:56:28.267Z,7.50
2018-04-06T23:58:55.912Z,7.90
